Time;durP1;ratioP1;P1;durP2;ratioP2;P2;SDS_P1;SDS_P2;PMS_P1;PMS_P2;Temp;Humidity;BMP_temperature;BMP_pressure;BME280_temperature;BME280_humidity;BME280_pressure;Samples;Min_cycle;Max_cycle;Signal;HPM_P1;HPM_P2
2022/12/04 00:01:29;;;;;;;61.65;26.77;;;;;;;-0.26;100.00;101757.50;5071628;28;20059;-48
2022/12/04 00:04:00;;;;;;;68.82;28.55;;;;;;;-0.35;100.00;101757.53;5072078;28;20098;-50
2022/12/04 00:06:28;;;;;;;63.55;26.38;;;;;;;-0.32;100.00;101762.69;5071902;28;20107;-52
2022/12/04 00:09:00;;;;;;;67.35;26.75;;;;;;;-0.31;100.00;101767.00;5072020;28;20115;-52
2022/12/04 00:11:31;;;;;;;64.72;26.90;;;;;;;-0.32;100.00;101765.28;5070624;28;20487;-50
2022/12/04 00:14:00;;;;;;;61.17;26.27;;;;;;;-0.22;100.00;101764.38;5071746;28;20037;-51
2022/12/04 00:16:34;;;;;;;63.17;26.95;;;;;;;-0.23;100.00;101757.47;5071305;28;20085;-48
2022/12/04 00:19:03;;;;;;;61.08;26.23;;;;;;;-0.24;100.00;101749.72;5071359;28;20105;-49
2022/12/04 00:21:31;;;;;;;66.95;27.27;;;;;;;-0.26;100.00;101754.91;5071475;28;20132;-49
2022/12/04 00:24:01;;;;;;;62.08;26.75;;;;;;;-0.17;100.00;101748.81;5071680;28;20098;-52
2022/12/04 00:26:30;;;;;;;64.45;26.10;;;;;;;-0.18;100.00;101742.78;5071589;28;20055;-51
2022/12/04 00:28:59;;;;;;;62.85;26.88;;;;;;;-0.19;100.00;101751.41;5073346;28;20048;-50
2022/12/04 00:31:28;;;;;;;63.50;28.15;;;;;;;-0.22;100.00;101750.56;5075123;28;20432;-48
2022/12/04 00:33:57;;;;;;;64.22;28.00;;;;;;;-0.17;100.00;101741.91;5075154;28;20083;-51
2022/12/04 00:36:28;;;;;;;66.57;27.75;;;;;;;-0.15;100.00;101743.63;5075267;28;20051;-49
2022/12/04 00:38:56;;;;;;;65.15;27.55;;;;;;;-0.20;100.00;101744.50;5074717;28;20036;-52
2022/12/04 00:41:27;;;;;;;60.50;27.77;;;;;;;-0.19;100.00;101746.25;5075059;28;20062;-51
2022/12/04 00:43:55;;;;;;;59.27;26.03;;;;;;;-0.23;100.00;101746.25;5074976;28;20114;-49
2022/12/04 00:46:24;;;;;;;62.85;26.80;;;;;;;-0.17;100.00;101744.50;5075093;28;20078;-50
2022/12/04 00:48:53;;;;;;;61.50;26.52;;;;;;;-0.10;100.00;101740.13;5074727;28;20476;-48
2022/12/04 00:51:23;;;;;;;60.58;28.13;;;;;;;-0.06;100.00;101738.41;5074883;28;20540;-57
2022/12/04 00:53:52;;;;;;;61.13;26.27;;;;;;;-0.13;100.00;101732.41;5074749;28;20076;-57
2022/12/04 00:56:23;;;;;;;59.28;27.17;;;;;;;-0.28;100.00;101735.09;5074572;28;20040;-58
2022/12/04 00:58:54;;;;;;;64.57;27.98;;;;;;;-0.24;100.00;101732.47;5074126;28;20051;-57
2022/12/04 01:01:23;;;;;;;62.38;26.80;;;;;;;-0.27;100.00;101732.50;5074561;28;20044;-57
2022/12/04 01:03:52;;;;;;;64.53;28.00;;;;;;;-0.20;100.00;101731.59;5074661;28;20127;-57
2022/12/04 01:06:22;;;;;;;66.32;26.40;;;;;;;-0.27;100.00;101735.09;5070980;28;20052;-58
2022/12/04 01:08:52;;;;;;;61.08;26.13;;;;;;;-0.22;100.00;101742.81;5072808;28;20479;-58
2022/12/04 01:11:23;;;;;;;65.43;27.38;;;;;;;-0.20;100.00;101741.94;5072407;28;20083;-58
2022/12/04 01:13:52;;;;;;;61.65;26.52;;;;;;;-0.14;100.00;101741.03;5071044;28;20037;-58
2022/12/04 01:16:23;;;;;;;65.57;29.10;;;;;;;-0.13;100.00;101749.66;5068650;28;20079;-57
2022/12/04 01:18:51;;;;;;;64.63;28.38;;;;;;;-0.08;100.00;101743.59;5071429;28;20064;-58
2022/12/04 01:21:20;;;;;;;61.95;26.70;;;;;;;-0.07;100.00;101744.44;5071453;28;20132;-58
2022/12/04 01:23:48;;;;;;;62.40;26.77;;;;;;;-0.08;100.00;101746.19;5071955;28;20053;-58
2022/12/04 01:26:19;;;;;;;64.28;28.92;;;;;;;-0.08;100.00;101742.72;5070222;28;20392;-58
2022/12/04 01:28:48;;;;;;;60.20;27.83;;;;;;;-0.08;100.00;101746.19;5070848;28;20127;-58
2022/12/04 01:31:21;;;;;;;59.10;26.33;;;;;;;-0.03;100.00;101740.97;5069819;28;20048;-58
2022/12/04 01:33:50;;;;;;;66.60;27.10;;;;;;;-0.04;100.00;101749.59;5073909;28;20527;-58
2022/12/04 01:36:21;;;;;;;67.60;28.65;;;;;;;-0.06;100.00;101746.16;5074291;28;20078;-57
2022/12/04 01:38:49;;;;;;;65.00;28.88;;;;;;;-0.09;100.00;101746.19;5073841;28;20057;-48
2022/12/04 01:41:21;;;;;;;57.72;27.05;;;;;;;-0.12;100.00;101751.34;5073933;28;20056;-48
2022/12/04 01:44:15;;;;;;;61.45;26.63;;;;;;;0.00;100.00;101753.91;5073759;28;20068;-50
2022/12/04 01:46:46;;;;;;;63.80;27.85;;;;;;;-0.11;100.00;101751.38;5073826;28;20044;-49
2022/12/04 01:49:17;;;;;;;61.20;28.05;;;;;;;-0.07;100.00;101737.56;5071356;28;20135;-52
2022/12/04 01:51:49;;;;;;;58.53;26.92;;;;;;;-0.04;100.00;101740.13;5070279;28;20056;-50
2022/12/04 01:54:27;;;;;;;63.55;27.05;;;;;;;-0.04;100.00;101736.66;5069502;28;20044;-49
2022/12/04 01:57:00;;;;;;;57.22;26.08;;;;;;;-0.04;100.00;101734.94;5069086;28;20068;-53
2022/12/04 01:59:32;;;;;;;61.50;27.20;;;;;;;-0.06;100.00;101734.06;5069928;28;20515;-51
2022/12/04 02:02:03;;;;;;;;;;;;;;;-0.06;100.00;101734.06;5070366;28;20286;-52
2022/12/04 02:04:34;;;;;;;64.53;28.73;;;;;;;-0.14;100.00;101730.69;5067801;28;19946;-47
2022/12/04 02:07:03;;;;;;;60.83;26.40;;;;;;;-0.08;100.00;101734.94;5073218;28;20046;-50
2022/12/04 02:09:32;;;;;;;63.47;26.88;;;;;;;-0.07;100.00;101728.91;5073053;28;20032;-58
2022/12/04 02:12:12;;;;;;;65.07;27.65;;;;;;;-0.13;100.00;101732.41;5070801;28;20414;-58
2022/12/04 02:14:48;;;;;;;62.42;27.67;;;;;;;-0.09;100.00;101730.66;5068012;28;20044;-50
2022/12/04 02:17:26;;;;;;;61.65;27.35;;;;;;;-0.09;100.00;101733.25;5068754;28;20135;-50
2022/12/04 02:20:22;;;;;;;62.25;27.65;;;;;;;-0.04;100.00;101731.47;5071128;28;20048;-52
2022/12/04 02:23:19;;;;;;;61.72;29.05;;;;;;;-0.09;100.00;101738.44;5073038;28;20509;-50
2022/12/04 02:25:57;;;;;;;64.07;27.13;;;;;;;-0.05;100.00;101740.13;5073041;28;20109;-50
2022/12/04 02:28:31;;;;;;;64.13;27.70;;;;;;;-0.04;100.00;101728.88;5071589;28;20097;-49
2022/12/04 02:31:02;;;;;;;65.03;26.65;;;;;;;-0.10;100.00;101737.56;5072777;28;20083;-53
2022/12/04 02:33:41;;;;;;;61.60;27.58;;;;;;;-0.07;100.00;101732.38;5072362;28;20064;-52
2022/12/04 02:36:13;;;;;;;62.28;28.73;;;;;;;-0.14;100.00;101733.28;5072742;28;20052;-49
2022/12/04 02:38:45;;;;;;;62.28;28.35;;;;;;;-0.03;100.00;101725.44;5072718;28;20110;-49
2022/12/04 02:41:20;;;;;;;62.47;27.13;;;;;;;-0.01;100.00;101729.75;5072639;28;20430;-51
2022/12/04 02:43:52;;;;;;;64.60;28.55;;;;;;;0.02;100.00;101723.69;5072717;28;20472;-52
2022/12/04 02:46:24;;;;;;;57.88;27.00;;;;;;;0.03;100.00;101724.53;5072522;28;20099;-52
2022/12/04 02:48:57;;;;;;;65.38;28.33;;;;;;;0.00;100.00;101720.28;5070997;28;20545;-54
2022/12/04 02:51:30;;;;;;;64.70;30.17;;;;;;;-0.04;100.00;101721.13;5067684;28;20062;-50
2022/12/04 02:54:04;;;;;;;60.22;26.42;;;;;;;-0.03;100.00;101717.69;5068778;28;20052;-50
2022/12/04 02:56:39;;;;;;;65.57;27.42;;;;;;;-0.05;100.00;101714.25;5071415;28;20055;-49
2022/12/04 02:59:12;;;;;;;61.92;28.95;;;;;;;-0.12;100.00;101704.81;5072450;28;20079;-51
2022/12/04 03:01:45;;;;;;;62.28;28.38;;;;;;;-0.04;100.00;101711.66;5072356;28;20060;-51
2022/12/04 03:04:17;;;;;;;59.45;26.42;;;;;;;-0.04;100.00;101709.06;5072516;28;20058;-51
2022/12/04 03:06:49;;;;;;;67.78;27.80;;;;;;;-0.10;100.00;101710.84;5073125;28;20098;-49
2022/12/04 03:09:21;;;;;;;59.92;27.98;;;;;;;-0.12;100.00;101710.88;5072655;28;20047;-50
2022/12/04 03:11:52;;;;;;;;;;;;;;;-0.09;100.00;101708.25;5072409;28;20068;-52
2022/12/04 03:14:25;;;;;;;64.30;27.60;;;;;;;-0.10;100.00;101708.25;5072209;28;19924;-58
2022/12/04 03:16:58;;;;;;;66.65;28.55;;;;;;;-0.15;100.00;101703.13;5072241;28;20484;-58
2022/12/04 03:19:28;;;;;;;;;;;;;;;-0.11;100.00;101701.38;5068789;28;20049;-58
2022/12/04 03:21:58;;;;;;;64.05;28.35;;;;;;;-0.09;100.00;101704.81;5068718;28;19920;-58
2022/12/04 03:24:29;;;;;;;58.00;26.77;;;;;;;-0.11;100.00;101704.81;5068234;28;20067;-58
2022/12/04 03:27:04;;;;;;;68.43;27.83;;;;;;;-0.08;100.00;101707.38;5069282;28;20503;-58
2022/12/04 03:29:39;;;;;;;61.00;27.77;;;;;;;-0.15;100.00;101702.25;5067440;28;20090;-59
2022/12/04 03:32:12;;;;;;;60.63;27.38;;;;;;;-0.11;100.00;101702.25;5068826;28;20045;-58
2022/12/04 03:34:51;;;;;;;64.97;27.48;;;;;;;-0.04;100.00;101706.50;5068482;28;20053;-58
2022/12/04 03:37:25;;;;;;;61.38;27.58;;;;;;;-0.10;100.00;101697.91;5068405;28;20048;-58
2022/12/04 03:40:03;;;;;;;65.57;27.73;;;;;;;-0.05;100.00;101701.34;5068290;28;20082;-57
2022/12/04 03:42:38;;;;;;;62.67;27.77;;;;;;;-0.03;100.00;101699.56;5068632;28;20561;-58
2022/12/04 03:45:17;;;;;;;67.68;27.40;;;;;;;-0.06;100.00;101700.47;5071536;28;20044;-57
2022/12/04 03:47:53;;;;;;;66.50;27.50;;;;;;;-0.16;100.00;101691.06;5069565;28;20052;-58
2022/12/04 03:50:29;;;;;;;60.80;25.17;;;;;;;-0.14;100.00;101697.06;5068203;28;20518;-58
2022/12/04 03:53:02;;;;;;;61.10;27.38;;;;;;;-0.17;100.00;101695.34;5071793;28;20052;-58
2022/12/04 03:55:36;;;;;;;60.80;27.25;;;;;;;-0.18;100.00;101696.25;5068086;28;20055;-58
2022/12/04 03:58:09;;;;;;;62.08;27.00;;;;;;;-0.21;100.00;101703.16;5070456;28;20054;-58
2022/12/04 04:00:42;;;;;;;59.97;25.85;;;;;;;-0.15;100.00;101697.09;5072084;28;20036;-58
2022/12/04 04:03:16;;;;;;;59.53;25.33;;;;;;;-0.14;100.00;101694.47;5068798;28;20056;-59
2022/12/04 04:05:47;;;;;;;61.72;27.52;;;;;;;-0.15;100.00;101700.53;5072609;28;20442;-58
2022/12/04 04:08:29;;;;;;;57.17;25.35;;;;;;;-0.11;100.00;101702.25;5072092;28;20047;-58
2022/12/04 04:11:02;;;;;;;61.20;27.27;;;;;;;-0.06;100.00;101695.28;5074166;28;20435;-58
2022/12/04 04:24:52;;;;;;;63.13;28.35;;;;;;;-0.05;100.00;101706.50;5073351;28;20052;-57
2022/12/04 04:27:21;;;;;;;59.15;26.63;;;;;;;-0.17;100.00;101700.53;5071962;28;20483;-57
2022/12/04 04:29:49;;;;;;;60.33;27.65;;;;;;;-0.11;100.00;101702.25;5070454;28;20053;-57
2022/12/04 04:32:33;;;;;;;62.97;27.05;;;;;;;-0.18;100.00;101703.13;5071368;28;20063;-57
2022/12/04 04:35:10;;;;;;;61.00;27.53;;;;;;;-0.11;100.00;101699.66;5072620;28;20549;-57
2022/12/04 04:37:48;;;;;;;59.55;26.60;;;;;;;-0.25;100.00;101704.88;5074100;28;20044;-58
2022/12/04 04:40:22;;;;;;;61.25;26.60;;;;;;;-0.24;100.00;101695.44;5070615;28;20041;-58
2022/12/04 04:42:54;;;;;;;62.65;27.65;;;;;;;-0.21;100.00;101703.16;5071721;28;20056;-59
2022/12/04 04:45:28;;;;;;;59.72;27.02;;;;;;;-0.24;100.00;101701.44;5069458;28;20151;-57
2022/12/04 04:48:02;;;;;;;59.88;26.02;;;;;;;-0.19;100.00;101701.44;5071456;28;20053;-58
2022/12/04 04:50:33;;;;;;;57.50;25.83;;;;;;;-0.19;100.00;101702.28;5071050;28;20117;-58
2022/12/04 04:53:04;;;;;;;64.90;26.65;;;;;;;-0.18;100.00;101705.72;5074288;28;20083;-57
2022/12/04 04:55:36;;;;;;;65.75;27.38;;;;;;;-0.23;100.00;101699.72;5074522;28;20131;-57
2022/12/04 04:58:08;;;;;;;60.72;27.50;;;;;;;-0.22;100.00;101698.84;5074705;28;20098;-57
2022/12/04 05:00:37;;;;;;;;;;;;;;;-0.20;100.00;101699.72;5070069;28;20049;-57
2022/12/04 05:03:07;;;;;;;59.63;26.60;;;;;;;-0.24;100.00;101704.03;5071275;28;19927;-57
2022/12/04 05:05:35;;;;;;;60.60;25.98;;;;;;;-0.24;100.00;101692.84;5071131;28;20048;-57
2022/12/04 05:08:03;;;;;;;62.10;26.13;;;;;;;-0.28;100.00;101696.31;5070282;28;20117;-58
2022/12/04 05:10:31;;;;;;;62.22;25.92;;;;;;;-0.24;100.00;101698.84;5070260;28;20045;-57
2022/12/04 05:12:59;;;;;;;66.20;27.67;;;;;;;-0.25;100.00;101701.47;5071345;28;20127;-58
2022/12/04 05:15:27;;;;;;;59.03;26.73;;;;;;;-0.28;100.00;101704.06;5067811;28;20052;-57
2022/12/04 05:17:55;;;;;;;60.33;26.23;;;;;;;-0.20;100.00;101703.13;5070977;28;20560;-57
2022/12/04 05:20:25;;;;;;;58.55;26.50;;;;;;;-0.25;100.00;101702.31;5073519;28;20049;-58
2022/12/04 05:22:53;;;;;;;63.30;26.80;;;;;;;-0.27;100.00;101704.06;5071062;28;20459;-58
2022/12/04 05:25:21;;;;;;;56.38;25.77;;;;;;;-0.18;100.00;101698.84;5070086;28;20045;-58
2022/12/04 05:27:50;;;;;;;54.78;24.17;;;;;;;-0.27;100.00;101704.06;5071704;28;20078;-58
2022/12/04 05:30:18;;;;;;;60.10;27.17;;;;;;;-0.32;100.00;101708.41;5068209;28;20131;-58
2022/12/04 05:32:46;;;;;;;60.08;26.63;;;;;;;-0.27;100.00;101696.31;5070966;28;20044;-58
2022/12/04 05:35:14;;;;;;;60.10;26.40;;;;;;;-0.29;100.00;101708.38;5073592;28;20075;-58
2022/12/04 05:37:46;;;;;;;61.50;26.48;;;;;;;-0.28;100.00;101697.16;5072558;28;20084;-58
2022/12/04 05:40:15;;;;;;;55.78;25.33;;;;;;;-0.27;100.00;101704.06;5070242;28;20499;-58
2022/12/04 05:42:43;;;;;;;58.67;25.52;;;;;;;-0.27;100.00;101696.31;5070860;28;20072;-58
2022/12/04 05:45:11;;;;;;;52.70;25.45;;;;;;;-0.26;100.00;101698.03;5068353;28;20121;-57
2022/12/04 05:47:40;;;;;;;52.10;23.77;;;;;;;-0.28;100.00;101698.91;5069852;28;20056;-58
2022/12/04 05:50:10;;;;;;;61.58;26.48;;;;;;;-0.23;100.00;101695.41;5070340;28;20113;-58
2022/12/04 05:52:38;;;;;;;60.33;26.50;;;;;;;-0.28;100.00;101699.75;5070336;28;20421;-58
2022/12/04 05:55:10;;;;;;;55.08;24.17;;;;;;;-0.25;100.00;101694.56;5070161;28;20052;-58
2022/12/04 05:57:38;;;;;;;54.85;24.08;;;;;;;-0.21;100.00;101700.56;5070160;28;20491;-58
2022/12/04 06:00:07;;;;;;;55.80;25.00;;;;;;;-0.28;100.00;101697.16;5072539;28;20040;-58
2022/12/04 06:02:36;;;;;;;51.63;24.27;;;;;;;-0.26;100.00;101686.81;5069815;28;20102;-58
2022/12/04 06:05:05;;;;;;;56.38;26.42;;;;;;;-0.20;100.00;101689.38;5071902;28;20044;-48
2022/12/04 06:07:33;;;;;;;53.40;24.73;;;;;;;-0.19;100.00;101688.50;5073290;28;20048;-51
2022/12/04 06:10:04;;;;;;;54.15;24.90;;;;;;;-0.18;100.00;101691.06;5073337;28;20048;-52
2022/12/04 06:12:33;;;;;;;58.85;24.13;;;;;;;-0.23;100.00;101691.94;5068154;28;20045;-53
2022/12/04 06:15:02;;;;;;;56.75;25.67;;;;;;;-0.14;100.00;101698.81;5069539;28;20396;-51
2022/12/04 06:17:30;;;;;;;57.58;26.33;;;;;;;-0.09;100.00;101684.13;5072561;28;20139;-51
2022/12/04 06:19:58;;;;;;;54.53;24.52;;;;;;;-0.13;100.00;101682.44;5072751;28;20052;-49
2022/12/04 06:22:27;;;;;;;53.78;23.45;;;;;;;-0.04;100.00;101682.34;5072735;28;20056;-52
2022/12/04 06:24:58;;;;;;;50.03;23.40;;;;;;;0.04;100.00;101685.75;5072919;28;20041;-51
2022/12/04 06:27:26;;;;;;;55.03;23.63;;;;;;;-0.05;100.00;101685.81;5072524;28;20483;-50
2022/12/04 06:29:57;;;;;;;54.67;24.25;;;;;;;-0.07;100.00;101677.19;5072600;28;20045;-52
2022/12/04 06:32:26;;;;;;;53.85;23.70;;;;;;;-0.06;100.00;101678.91;5071626;28;20055;-52
2022/12/04 06:34:55;;;;;;;58.13;25.77;;;;;;;-0.05;100.00;101683.22;5070399;28;20147;-51
2022/12/04 06:37:24;;;;;;;58.47;24.52;;;;;;;-0.15;100.00;101685.03;5069280;28;20060;-58
2022/12/04 06:39:53;;;;;;;55.60;24.17;;;;;;;-0.05;100.00;101678.06;5071075;28;20050;-53
2022/12/04 06:42:22;;;;;;;55.30;23.98;;;;;;;-0.09;100.00;101678.94;5068909;28;20106;-51
2022/12/04 06:44:50;;;;;;;60.88;25.95;;;;;;;-0.10;100.00;101685.84;5071154;28;20075;-49
2022/12/04 06:47:19;;;;;;;52.13;23.65;;;;;;;-0.05;100.00;101683.22;5072759;28;20056;-49
2022/12/04 06:49:49;;;;;;;55.10;24.35;;;;;;;-0.09;100.00;101689.28;5072586;28;20049;-51
2022/12/04 06:52:18;;;;;;;56.97;25.00;;;;;;;-0.07;100.00;101691.00;5071239;28;20059;-49
2022/12/04 06:54:48;;;;;;;58.35;25.38;;;;;;;0.01;100.00;101696.09;5072613;28;20045;-58
2022/12/04 06:57:16;;;;;;;54.38;23.40;;;;;;;-0.08;100.00;101701.34;5070474;28;20052;-59
2022/12/04 06:59:44;;;;;;;53.28;23.70;;;;;;;0.01;100.00;101696.09;5068312;28;20054;-58
2022/12/04 07:02:12;;;;;;;53.75;24.67;;;;;;;-0.02;100.00;101702.16;5068699;28;20072;-58
2022/12/04 07:04:42;;;;;;;53.30;22.77;;;;;;;-0.02;100.00;101701.31;5067810;28;20558;-58
2022/12/04 07:07:11;;;;;;;53.58;23.42;;;;;;;0.03;100.00;101699.56;5069357;28;20118;-58
2022/12/04 07:09:43;;;;;;;53.33;24.48;;;;;;;-0.04;100.00;101703.91;5068628;28;20051;-58
2022/12/04 07:12:11;;;;;;;56.95;24.73;;;;;;;-0.07;100.00;101703.06;5068684;28;20056;-58
2022/12/04 07:14:39;;;;;;;59.08;24.92;;;;;;;-0.07;100.00;101706.53;5071887;28;20488;-49
2022/12/04 07:17:07;;;;;;;55.08;24.25;;;;;;;-0.05;100.00;101701.34;5071886;28;20048;-58
2022/12/04 07:19:36;;;;;;;53.00;22.00;;;;;;;0.04;100.00;101706.44;5068393;28;20057;-58
2022/12/04 07:22:07;;;;;;;52.88;22.83;;;;;;;0.04;100.00;101713.31;5070437;28;20048;-52
2022/12/04 07:24:37;;;;;;;52.97;22.73;;;;;;;0.06;100.00;101715.03;5070893;28;20118;-49
2022/12/04 07:27:05;;;;;;;52.42;24.27;;;;;;;0.13;100.00;101726.19;5072118;28;20523;-51
2022/12/04 07:29:33;;;;;;;50.38;23.55;;;;;;;0.05;100.00;101718.47;5072154;28;20500;-58
2022/12/04 07:32:01;;;;;;;52.30;24.35;;;;;;;-0.02;100.00;101716.81;5071858;28;20045;-57
2022/12/04 07:34:29;;;;;;;51.60;23.10;;;;;;;0.02;100.00;101708.16;5068331;28;20572;-58
2022/12/04 07:36:57;;;;;;;51.30;22.10;;;;;;;-0.07;100.00;101718.56;5069363;28;20059;-59
2022/12/04 07:39:27;;;;;;;51.97;24.23;;;;;;;0.01;100.00;101710.78;5072760;28;20044;-58
2022/12/04 07:41:55;;;;;;;54.95;23.77;;;;;;;-0.03;100.00;101715.97;5072041;28;20062;-58
2022/12/04 07:44:23;;;;;;;55.75;23.80;;;;;;;0.00;100.00;101712.50;5071833;28;20394;-57
2022/12/04 07:46:51;;;;;;;50.53;22.52;;;;;;;0.06;100.00;101717.63;5071240;28;20052;-58
2022/12/04 07:49:19;;;;;;;51.75;23.95;;;;;;;0.01;100.00;101714.19;5074328;28;20048;-58
2022/12/04 07:51:48;;;;;;;47.78;21.75;;;;;;;-0.06;100.00;101715.13;5075736;28;20131;-58
2022/12/04 07:54:16;;;;;;;49.42;21.55;;;;;;;0.01;100.00;101716.78;5075895;28;20063;-52
2022/12/04 07:56:45;;;;;;;46.70;21.35;;;;;;;-0.02;100.00;101716.81;5076108;28;20049;-58
2022/12/04 07:59:18;;;;;;;50.40;22.48;;;;;;;0.01;100.00;101716.78;5075894;28;20040;-58
2022/12/04 08:01:46;;;;;;;48.10;21.58;;;;;;;-0.04;100.00;101722.00;5074266;28;20098;-58
2022/12/04 08:04:15;;;;;;;49.15;21.80;;;;;;;-0.03;100.00;101720.28;5072089;28;20048;-58
2022/12/04 08:06:43;;;;;;;50.72;21.27;;;;;;;0.06;100.00;101725.38;5072362;28;20078;-58
2022/12/04 08:09:11;;;;;;;49.92;21.40;;;;;;;0.07;100.00;101724.53;5071978;28;20453;-58
2022/12/04 08:11:39;;;;;;;44.13;20.08;;;;;;;0.05;100.00;101728.84;5071967;28;20368;-58
2022/12/04 08:14:12;;;;;;;46.85;20.23;;;;;;;0.08;100.00;101728.84;5073972;28;20060;-57
2022/12/04 08:16:40;;;;;;;51.17;21.52;;;;;;;0.06;100.00;101727.97;5075722;28;20060;-57
2022/12/04 08:19:08;;;;;;;52.75;22.25;;;;;;;0.01;100.00;101731.47;5072991;28;20469;-58
2022/12/04 08:21:37;;;;;;;48.92;22.35;;;;;;;0.00;100.00;101733.19;5072035;28;20134;-58
2022/12/04 08:24:06;;;;;;;46.45;19.98;;;;;;;0.10;100.00;101742.59;5075408;28;20109;-58
2022/12/04 08:26:34;;;;;;;51.15;22.35;;;;;;;0.04;100.00;101747.84;5073122;28;20045;-57
2022/12/04 08:29:03;;;;;;;45.90;20.92;;;;;;;0.06;100.00;101743.50;5071631;28;20049;-58
2022/12/04 08:31:35;;;;;;;48.55;21.20;;;;;;;0.01;100.00;101741.81;5072967;28;20040;-58
2022/12/04 08:34:06;;;;;;;51.22;22.17;;;;;;;0.09;100.00;101753.81;5075100;28;20067;-58
2022/12/04 08:36:35;;;;;;;49.28;21.52;;;;;;;-0.02;100.00;101750.44;5075100;28;20060;-58
2022/12/04 08:39:04;;;;;;;54.75;24.05;;;;;;;0.02;100.00;101746.13;5075008;28;20048;-58
2022/12/04 08:41:32;;;;;;;43.38;20.45;;;;;;;0.07;100.00;101749.50;5073606;28;20070;-58
2022/12/04 08:44:00;;;;;;;47.83;22.38;;;;;;;0.02;100.00;101753.88;5074971;28;20469;-58
2022/12/04 08:46:28;;;;;;;47.90;21.65;;;;;;;0.11;100.00;101752.09;5074840;28;20052;-58
2022/12/04 08:48:58;;;;;;;49.15;21.25;;;;;;;0.08;100.00;101744.34;5073695;28;20040;-58
2022/12/04 08:51:30;;;;;;;44.95;19.92;;;;;;;0.02;100.00;101754.72;5074710;28;20060;-58
2022/12/04 08:54:01;;;;;;;50.20;20.02;;;;;;;0.02;100.00;101751.28;5072819;28;20110;-58
2022/12/04 08:56:31;;;;;;;48.72;21.33;;;;;;;0.06;100.00;101748.66;5070664;28;20105;-58
2022/12/04 08:59:00;;;;;;;49.70;21.63;;;;;;;0.04;100.00;101747.84;5071013;28;20102;-58
2022/12/04 09:01:28;;;;;;;50.25;21.55;;;;;;;0.07;100.00;101741.75;5070567;28;20044;-51
2022/12/04 09:03:58;;;;;;;51.00;20.33;;;;;;;0.10;100.00;101734.84;5074491;28;20491;-49
2022/12/04 09:06:27;;;;;;;45.85;21.25;;;;;;;0.09;100.00;101737.44;5072764;28;20083;-58
2022/12/04 09:08:56;;;;;;;46.22;21.38;;;;;;;0.13;100.00;101734.81;5074480;28;20483;-58
2022/12/04 09:11:26;;;;;;;47.47;22.08;;;;;;;0.12;100.00;101730.53;5074524;28;20103;-58
2022/12/04 09:13:55;;;;;;;46.63;19.85;;;;;;;0.14;100.00;101731.34;5074735;28;20055;-58
2022/12/04 09:16:24;;;;;;;48.30;20.75;;;;;;;0.12;100.00;101727.06;5074455;28;20053;-58
2022/12/04 09:18:54;;;;;;;43.85;20.80;;;;;;;0.22;100.00;101735.59;5074321;28;20048;-58
2022/12/04 09:21:24;;;;;;;43.22;19.80;;;;;;;0.17;100.00;101733.91;5071600;28;20059;-58
2022/12/04 09:23:53;;;;;;;43.72;19.20;;;;;;;0.25;100.00;101740.78;5070912;28;20045;-58
2022/12/04 09:26:24;;;;;;;41.28;18.58;;;;;;;0.10;100.00;101742.59;5074342;28;20110;-57
2022/12/04 09:28:53;;;;;;;40.35;18.45;;;;;;;0.16;100.00;101742.56;5074280;28;20101;-58
2022/12/04 09:31:22;;;;;;;43.30;17.70;;;;;;;0.22;100.00;101744.25;5074154;28;20498;-58
2022/12/04 09:33:51;;;;;;;36.65;17.55;;;;;;;0.19;100.00;101741.66;5073942;28;20131;-58
2022/12/04 09:36:19;;;;;;;40.97;17.73;;;;;;;0.14;100.00;101746.88;5070892;28;20106;-58
2022/12/04 09:38:51;;;;;;;37.90;19.00;;;;;;;0.11;100.00;101749.50;5070712;28;20399;-58
2022/12/04 09:41:48;;;;;;;34.53;16.20;;;;;;;0.19;100.00;101743.41;5069325;28;20441;-58
2022/12/04 09:44:21;;;;;;;32.47;15.05;;;;;;;0.22;100.00;101743.38;5069473;28;20098;-58
2022/12/04 09:46:53;;;;;;;33.10;16.33;;;;;;;0.20;100.00;101742.53;5072529;28;20049;-58
2022/12/04 09:49:26;;;;;;;38.87;16.50;;;;;;;0.21;100.00;101737.34;5072847;28;20098;-57
2022/12/04 09:51:58;;;;;;;30.95;15.48;;;;;;;0.24;100.00;101737.31;5070294;28;20169;-58
2022/12/04 09:54:33;;;;;;;29.58;14.32;;;;;;;0.28;100.00;101739.00;5069891;28;20048;-58
2022/12/04 09:57:10;;;;;;;28.00;13.82;;;;;;;0.29;100.00;101743.31;5070139;28;20096;-53
2022/12/04 09:59:38;;;;;;;25.73;13.00;;;;;;;0.24;100.00;101739.06;5073219;28;20562;-51
2022/12/04 10:02:35;;;;;;;27.63;13.30;;;;;;;0.36;100.00;101732.94;5072757;28;20692;-52
2022/12/04 10:05:05;;;;;;;28.20;13.50;;;;;;;0.28;100.00;101731.25;5073318;28;20467;-48
2022/12/04 10:07:41;;;;;;;27.42;13.93;;;;;;;0.29;100.00;101726.94;5072985;28;20052;-51
2022/12/04 10:10:19;;;;;;;26.65;13.07;;;;;;;0.26;100.00;101726.94;5073383;28;20052;-52
2022/12/04 10:12:54;;;;;;;28.92;13.32;;;;;;;0.28;100.00;101726.06;5073011;28;20121;-49
2022/12/04 10:15:29;;;;;;;26.77;13.98;;;;;;;0.29;100.00;101719.19;5072811;28;20094;-47
2022/12/04 10:18:08;;;;;;;29.45;13.48;;;;;;;0.38;100.00;101729.44;5069351;28;20061;-52
2022/12/04 10:20:54;;;;;;;26.85;12.73;;;;;;;0.39;100.00;101728.56;5069398;28;20084;-50
2022/12/04 10:23:37;;;;;;;21.33;11.38;;;;;;;0.36;100.00;101725.16;5071160;28;20047;-49
2022/12/04 10:26:13;;;;;;;24.23;11.75;;;;;;;0.40;100.00;101725.13;5069111;28;20080;-48
2022/12/04 10:28:45;;;;;;;26.02;13.00;;;;;;;0.45;100.00;101730.25;5069681;28;20122;-49
2022/12/04 10:31:20;;;;;;;26.42;13.73;;;;;;;0.44;100.00;101744.06;5073098;28;20403;-50
2022/12/04 10:33:53;;;;;;;25.38;13.05;;;;;;;0.44;100.00;101739.75;5073044;28;20090;-51
2022/12/04 10:36:27;;;;;;;25.50;13.05;;;;;;;0.36;100.00;101733.78;5072876;28;20453;-50
2022/12/04 10:38:57;;;;;;;27.85;12.63;;;;;;;0.48;100.00;101738.00;5069657;28;20056;-49
2022/12/04 10:41:29;;;;;;;24.95;12.50;;;;;;;0.52;100.00;101738.81;5067175;28;20147;-50
2022/12/04 10:43:57;;;;;;;25.33;13.70;;;;;;;0.52;100.00;101728.47;5067896;28;20056;-51
2022/12/04 10:46:28;;;;;;;22.48;11.95;;;;;;;0.52;100.00;101725.88;5068718;28;20052;-50
2022/12/04 10:48:59;;;;;;;24.27;12.27;;;;;;;0.51;100.00;101727.63;5072702;28;20361;-50
2022/12/04 10:51:35;;;;;;;25.90;14.77;;;;;;;0.47;100.00;101716.41;5069384;28;20060;-49
2022/12/04 10:54:16;;;;;;;24.85;11.95;;;;;;;0.48;100.00;101718.13;5069685;28;20098;-50
2022/12/04 10:56:53;;;;;;;24.20;11.82;;;;;;;0.59;100.00;101718.03;5072506;28;20561;-51
2022/12/04 10:59:22;;;;;;;25.70;12.73;;;;;;;0.52;100.00;101718.97;5069419;28;20051;-52
2022/12/04 11:01:51;;;;;;;27.23;12.73;;;;;;;0.50;100.00;101718.13;5068014;28;20044;-49
2022/12/04 11:04:23;;;;;;;24.95;11.73;;;;;;;0.65;100.00;101717.13;5071442;28;20139;-51
2022/12/04 11:06:59;;;;;;;22.15;11.60;;;;;;;0.62;100.00;101720.59;5072517;28;20553;-50
2022/12/04 11:09:29;;;;;;;23.55;12.25;;;;;;;0.71;100.00;101718.78;5071428;28;20056;-50
2022/12/04 11:12:08;;;;;;;25.83;11.93;;;;;;;0.70;100.00;101715.34;5072061;28;20068;-52
2022/12/04 11:14:36;;;;;;;24.13;12.80;;;;;;;0.72;100.00;101721.34;5072294;28;20055;-48
2022/12/04 11:17:16;;;;;;;24.20;12.25;;;;;;;0.64;100.00;101717.97;5071880;28;20495;-49
2022/12/04 11:19:44;;;;;;;21.42;12.00;;;;;;;0.67;100.00;101713.66;5072030;28;20063;-50
2022/12/04 11:22:15;;;;;;;21.55;12.07;;;;;;;0.70;100.00;101706.72;5070746;28;20510;-51
2022/12/04 11:24:51;;;;;;;23.98;12.70;;;;;;;0.71;100.00;101701.53;5051778;28;20060;-50
2022/12/04 11:27:26;;;;;;;24.02;12.55;;;;;;;0.73;100.00;101694.59;5049277;28;20091;-49
2022/12/04 11:29:55;;;;;;;23.55;12.52;;;;;;;0.73;100.00;101694.59;5043845;28;20057;-51
2022/12/04 11:32:26;;;;;;;21.15;11.85;;;;;;;0.78;100.00;101687.63;5042812;28;20041;-51
2022/12/04 11:35:00;;;;;;;23.20;12.30;;;;;;;0.70;100.00;101686.03;5044178;28;20041;-50